sensor_id;sensor_type;location;lat;lon;timestamp;pressure;altitude;pressure_sealevel;temperature;humidity
7990;BME280;4040;42.848;23.034;2023-08-12T00:03:40;95509.41;;;14.40;100.00
7990;BME280;4040;42.848;23.034;2023-08-12T00:13:52;95501.84;;;14.28;100.00
7990;BME280;4040;42.848;23.034;2023-08-12T00:19:41;95500.06;;;14.18;100.00
7990;BME280;4040;42.848;23.034;2023-08-12T00:25:29;95507.78;;;14.16;100.00
7990;BME280;4040;42.848;23.034;2023-08-12T00:31:19;95488.34;;;13.91;100.00
7990;BME280;4040;42.848;23.034;2023-08-12T00:37:08;95491.97;;;13.81;100.00
7990;BME280;4040;42.848;23.034;2023-08-12T00:42:57;95494.41;;;13.72;100.00
7990;BME280;4040;42.848;23.034;2023-08-12T00:48:47;95490.97;;;13.68;100.00
7990;BME280;4040;42.848;23.034;2023-08-12T00:54:36;95486.28;;;13.72;100.00
7990;BME280;4040;42.848;23.034;2023-08-12T01:00:25;95475.53;;;13.65;100.00
7990;BME280;4040;42.848;23.034;2023-08-12T01:06:15;95476.34;;;13.62;100.00
7990;BME280;4040;42.848;23.034;2023-08-12T01:16:29;95474.53;;;13.52;100.00
7990;BME280;4040;42.848;23.034;2023-08-12T01:22:21;95484.19;;;13.53;100.00
7990;BME280;4040;42.848;23.034;2023-08-12T01:28:13;95477.22;;;13.52;100.00
7990;BME280;4040;42.848;23.034;2023-08-12T01:34:06;95481.84;;;13.55;100.00
7990;BME280;4040;42.848;23.034;2023-08-12T01:39:59;95479.66;;;13.43;100.00
7990;BME280;4040;42.848;23.034;2023-08-12T01:45:51;95482.13;;;13.27;100.00
7990;BME280;4040;42.848;23.034;2023-08-12T01:51:40;95479.91;;;13.15;100.00
7990;BME280;4040;42.848;23.034;2023-08-12T01:57:29;95486.59;;;13.03;100.00
7990;BME280;4040;42.848;23.034;2023-08-12T02:03:18;95486.28;;;12.91;100.00
7990;BME280;4040;42.848;23.034;2023-08-12T02:09:07;95491.03;;;12.80;100.00
7990;BME280;4040;42.848;23.034;2023-08-12T02:19:19;95482.63;;;12.64;100.00
7990;BME280;4040;42.848;23.034;2023-08-12T02:25:08;95471.50;;;12.55;100.00
7990;BME280;4040;42.848;23.034;2023-08-12T02:30:56;95481.59;;;12.51;100.00
7990;BME280;4040;42.848;23.034;2023-08-12T02:36:47;95473.53;;;12.41;100.00
7990;BME280;4040;42.848;23.034;2023-08-12T02:42:35;95486.69;;;12.35;100.00
7990;BME280;4040;42.848;23.034;2023-08-12T02:48:33;95491.38;;;12.31;100.00
7990;BME280;4040;42.848;23.034;2023-08-12T02:54:23;95494.09;;;12.24;100.00
7990;BME280;4040;42.848;23.034;2023-08-12T03:00:13;95486.03;;;12.21;100.00
7990;BME280;4040;42.848;23.034;2023-08-12T03:06:02;95487.59;;;12.15;100.00
7990;BME280;4040;42.848;23.034;2023-08-12T03:11:52;95503.03;;;12.14;100.00
7990;BME280;4040;42.848;23.034;2023-08-12T03:22:03;95511.19;;;12.04;100.00
7990;BME280;4040;42.848;23.034;2023-08-12T03:27:53;95513.09;;;12.03;100.00
7990;BME280;4040;42.848;23.034;2023-08-12T03:33:41;95517.69;;;12.10;100.00
7990;BME280;4040;42.848;23.034;2023-08-12T03:39:30;95501.91;;;12.12;100.00
7990;BME280;4040;42.848;23.034;2023-08-12T03:45:21;95504.63;;;12.08;100.00
7990;BME280;4040;42.848;23.034;2023-08-12T03:51:09;95516.94;;;12.09;100.00
7990;BME280;4040;42.848;23.034;2023-08-12T03:56:58;95510.00;;;12.15;100.00
7990;BME280;4040;42.848;23.034;2023-08-12T04:02:48;95515.31;;;12.22;100.00
7990;BME280;4040;42.848;23.034;2023-08-12T04:08:37;95513.06;;;12.17;100.00
7990;BME280;4040;42.848;23.034;2023-08-12T04:14:26;95518.81;;;12.23;100.00
7990;BME280;4040;42.848;23.034;2023-08-12T04:24:37;95528.25;;;12.55;100.00
7990;BME280;4040;42.848;23.034;2023-08-12T04:30:26;95523.13;;;12.71;100.00
7990;BME280;4040;42.848;23.034;2023-08-12T04:36:14;95524.91;;;12.95;100.00
7990;BME280;4040;42.848;23.034;2023-08-12T04:42:05;95526.91;;;13.31;100.00
7990;BME280;4040;42.848;23.034;2023-08-12T04:47:55;95527.69;;;13.69;100.00
7990;BME280;4040;42.848;23.034;2023-08-12T04:53:44;95522.66;;;15.36;100.00
7990;BME280;4040;42.848;23.034;2023-08-12T04:59:34;95513.22;;;16.93;100.00
7990;BME280;4040;42.848;23.034;2023-08-12T05:05:22;95504.34;;;18.51;100.00
7990;BME280;4040;42.848;23.034;2023-08-12T05:11:11;95508.94;;;19.75;100.00
7990;BME280;4040;42.848;23.034;2023-08-12T05:17:01;95499.28;;;21.08;100.00
7990;BME280;4040;42.848;23.034;2023-08-12T05:27:12;95497.88;;;24.57;93.18
7990;BME280;4040;42.848;23.034;2023-08-12T05:33:02;95501.47;;;24.63;82.20
7990;BME280;4040;42.848;23.034;2023-08-12T05:38:51;95497.88;;;24.57;83.69
7990;BME280;4040;42.848;23.034;2023-08-12T05:44:41;95495.19;;;26.65;74.95
7990;BME280;4040;42.848;23.034;2023-08-12T05:50:31;95495.34;;;27.91;67.28
7990;BME280;4040;42.848;23.034;2023-08-12T05:56:20;95493.81;;;28.76;60.37
7990;BME280;4040;42.848;23.034;2023-08-12T06:02:08;95488.06;;;27.57;62.95
7990;BME280;4040;42.848;23.034;2023-08-12T06:07:58;95482.72;;;28.65;58.76
7990;BME280;4040;42.848;23.034;2023-08-12T06:13:47;95485.97;;;29.62;54.01
7990;BME280;4040;42.848;23.034;2023-08-12T06:19:35;95484.34;;;30.00;53.53
7990;BME280;4040;42.848;23.034;2023-08-12T06:29:48;95481.34;;;30.44;48.53
7990;BME280;4040;42.848;23.034;2023-08-12T06:35:36;95480.66;;;31.08;47.58
7990;BME280;4040;42.848;23.034;2023-08-12T06:41:26;95481.25;;;33.83;42.49
7990;BME280;4040;42.848;23.034;2023-08-12T06:47:17;95474.72;;;32.18;42.77
7990;BME280;4040;42.848;23.034;2023-08-12T06:53:05;95477.47;;;34.20;41.08
7990;BME280;4040;42.848;23.034;2023-08-12T06:58:54;95458.25;;;32.38;42.34
7990;BME280;4040;42.848;23.034;2023-08-12T07:04:44;95468.91;;;33.92;38.78
7990;BME280;4040;42.848;23.034;2023-08-12T07:10:33;95470.66;;;33.24;41.83
7990;BME280;4040;42.848;23.034;2023-08-12T07:16:22;95461.84;;;33.33;39.99
7990;BME280;4040;42.848;23.034;2023-08-12T07:22:12;95458.44;;;35.39;38.24
7990;BME280;4040;42.848;23.034;2023-08-12T07:32:22;95454.00;;;35.03;35.59
7990;BME280;4040;42.848;23.034;2023-08-12T07:38:12;95460.06;;;34.73;39.63
7990;BME280;4040;42.848;23.034;2023-08-12T07:44:00;95450.59;;;36.64;35.79
7990;BME280;4040;42.848;23.034;2023-08-12T07:49:49;95447.72;;;33.83;39.17
7990;BME280;4040;42.848;23.034;2023-08-12T07:55:39;95440.34;;;34.32;39.92
7990;BME280;4040;42.848;23.034;2023-08-12T08:01:28;95439.03;;;34.80;39.48
7990;BME280;4040;42.848;23.034;2023-08-12T08:07:16;95429.53;;;36.43;35.13
7990;BME280;4040;42.848;23.034;2023-08-12T08:13:06;95432.25;;;36.63;34.78
7990;BME280;4040;42.848;23.034;2023-08-12T08:18:55;95430.09;;;37.37;34.21
7990;BME280;4040;42.848;23.034;2023-08-12T08:24:44;95436.38;;;35.84;36.42
7990;BME280;4040;42.848;23.034;2023-08-12T08:34:56;95420.31;;;36.78;34.86
7990;BME280;4040;42.848;23.034;2023-08-12T08:40:49;95418.72;;;36.54;34.54
7990;BME280;4040;42.848;23.034;2023-08-12T08:46:38;95414.75;;;37.23;34.58
7990;BME280;4040;42.848;23.034;2023-08-12T08:52:29;95408.34;;;37.67;32.61
7990;BME280;4040;42.848;23.034;2023-08-12T08:58:18;95410.56;;;36.79;34.43
7990;BME280;4040;42.848;23.034;2023-08-12T09:04:07;95401.03;;;38.34;33.32
7990;BME280;4040;42.848;23.034;2023-08-12T09:09:58;95401.56;;;38.40;33.46
7990;BME280;4040;42.848;23.034;2023-08-12T09:15:50;95395.47;;;38.19;33.17
7990;BME280;4040;42.848;23.034;2023-08-12T09:21:39;95383.59;;;39.23;29.96
7990;BME280;4040;42.848;23.034;2023-08-12T09:27:30;95375.47;;;34.88;34.95
7990;BME280;4040;42.848;23.034;2023-08-12T09:37:41;95374.06;;;37.61;33.86
7990;BME280;4040;42.848;23.034;2023-08-12T09:43:32;95360.66;;;35.84;33.42
7990;BME280;4040;42.848;23.034;2023-08-12T09:49:20;95351.78;;;37.56;31.78
7990;BME280;4040;42.848;23.034;2023-08-12T09:55:11;95343.97;;;38.41;32.74
7990;BME280;4040;42.848;23.034;2023-08-12T10:01:02;95350.28;;;37.40;31.84
7990;BME280;4040;42.848;23.034;2023-08-12T10:06:51;95349.31;;;37.67;33.23
7990;BME280;4040;42.848;23.034;2023-08-12T10:12:41;95338.84;;;39.27;29.12
7990;BME280;4040;42.848;23.034;2023-08-12T10:18:31;95331.41;;;38.66;32.02
7990;BME280;4040;42.848;23.034;2023-08-12T10:24:21;95324.53;;;35.17;32.87
7990;BME280;4040;42.848;23.034;2023-08-12T10:30:10;95325.28;;;34.15;32.29
7990;BME280;4040;42.848;23.034;2023-08-12T10:40:24;95317.19;;;33.91;37.06
7990;BME280;4040;42.848;23.034;2023-08-12T10:46:22;95300.88;;;33.82;35.95
7990;BME280;4040;42.848;23.034;2023-08-12T10:52:26;95319.19;;;33.57;35.07
7990;BME280;4040;42.848;23.034;2023-08-12T10:58:26;95313.56;;;32.79;37.84
7990;BME280;4040;42.848;23.034;2023-08-12T11:04:19;95298.91;;;30.70;41.48
7990;BME280;4040;42.848;23.034;2023-08-12T11:10:12;95305.13;;;30.23;42.09
7990;BME280;4040;42.848;23.034;2023-08-12T11:16:09;95289.97;;;29.32;42.24
7990;BME280;4040;42.848;23.034;2023-08-12T11:21:58;95292.00;;;30.18;43.53
7990;BME280;4040;42.848;23.034;2023-08-12T11:27:48;95275.72;;;30.33;45.50
7990;BME280;4040;42.848;23.034;2023-08-12T11:33:38;95285.53;;;30.69;43.37
7990;BME280;4040;42.848;23.034;2023-08-12T11:39:26;95281.22;;;30.09;44.16
7990;BME280;4040;42.848;23.034;2023-08-12T11:45:18;95227.00;;;29.16;42.50
7990;BME280;4040;42.848;23.034;2023-08-12T11:51:08;95277.91;;;29.75;44.73
7990;BME280;4040;42.848;23.034;2023-08-12T11:56:58;95243.63;;;29.67;42.51
7990;BME280;4040;42.848;23.034;2023-08-12T12:02:48;95269.25;;;28.65;45.37
7990;BME280;4040;42.848;23.034;2023-08-12T12:08:39;95273.84;;;28.13;45.99
7990;BME280;4040;42.848;23.034;2023-08-12T12:14:28;95268.06;;;28.33;45.86
7990;BME280;4040;42.848;23.034;2023-08-12T12:20:18;95266.53;;;28.43;44.02
7990;BME280;4040;42.848;23.034;2023-08-12T12:26:09;95259.97;;;28.46;43.57
7990;BME280;4040;42.848;23.034;2023-08-12T12:31:58;95254.19;;;28.50;43.51
7990;BME280;4040;42.848;23.034;2023-08-12T12:41:30;95257.69;;;28.50;44.49
7990;BME280;4040;42.848;23.034;2023-08-12T12:47:20;95248.63;;;28.00;45.61
7990;BME280;4040;42.848;23.034;2023-08-12T12:53:08;95240.84;;;27.82;46.94
7990;BME280;4040;42.848;23.034;2023-08-12T12:58:58;95240.28;;;27.67;48.69
7990;BME280;4040;42.848;23.034;2023-08-12T13:04:47;95239.59;;;28.05;48.52
7990;BME280;4040;42.848;23.034;2023-08-12T13:10:37;95245.25;;;27.30;47.59
7990;BME280;4040;42.848;23.034;2023-08-12T13:16:27;95234.84;;;26.50;50.20
7990;BME280;4040;42.848;23.034;2023-08-12T13:22:15;95231.28;;;26.44;55.12
7990;BME280;4040;42.848;23.034;2023-08-12T13:28:05;95238.56;;;26.47;55.98
7990;BME280;4040;42.848;23.034;2023-08-12T13:33:56;95236.19;;;26.30;58.80
7990;BME280;4040;42.848;23.034;2023-08-12T13:39:44;95233.38;;;26.19;56.44
7990;BME280;4040;42.848;23.034;2023-08-12T13:45:33;95241.13;;;26.15;55.08
7990;BME280;4040;42.848;23.034;2023-08-12T13:51:23;95225.91;;;26.30;56.83
7990;BME280;4040;42.848;23.034;2023-08-12T13:57:13;95234.03;;;26.03;56.17
7990;BME280;4040;42.848;23.034;2023-08-12T14:03:01;95231.81;;;26.12;56.58
7990;BME280;4040;42.848;23.034;2023-08-12T14:08:52;95226.97;;;26.02;58.16
7990;BME280;4040;42.848;23.034;2023-08-12T14:14:41;95216.53;;;25.86;54.56
7990;BME280;4040;42.848;23.034;2023-08-12T14:20:30;95226.06;;;25.85;54.58
7990;BME280;4040;42.848;23.034;2023-08-12T14:26:20;95224.63;;;25.89;55.33
7990;BME280;4040;42.848;23.034;2023-08-12T14:32:08;95229.94;;;26.29;54.12
7990;BME280;4040;42.848;23.034;2023-08-12T14:37:57;95226.97;;;26.85;52.52
7990;BME280;4040;42.848;23.034;2023-08-12T14:43:47;95215.66;;;26.83;50.99
7990;BME280;4040;42.848;23.034;2023-08-12T14:49:36;95221.69;;;26.82;51.45
7990;BME280;4040;42.848;23.034;2023-08-12T14:55:24;95222.84;;;26.64;51.25
7990;BME280;4040;42.848;23.034;2023-08-12T15:01:14;95220.94;;;26.81;50.93
7990;BME280;4040;42.848;23.034;2023-08-12T15:07:03;95220.22;;;26.86;49.30
7990;BME280;4040;42.848;23.034;2023-08-12T15:12:51;95214.47;;;26.12;50.60
7990;BME280;4040;42.848;23.034;2023-08-12T15:18:42;95216.28;;;25.84;50.86
7990;BME280;4040;42.848;23.034;2023-08-12T15:24:30;95223.59;;;25.87;50.69
7990;BME280;4040;42.848;23.034;2023-08-12T15:30:19;95226.75;;;25.80;48.81
7990;BME280;4040;42.848;23.034;2023-08-12T15:36:09;95232.09;;;25.58;50.96
7990;BME280;4040;42.848;23.034;2023-08-12T15:46:00;95226.91;;;25.40;52.62
7990;BME280;4040;42.848;23.034;2023-08-12T15:51:50;95223.97;;;25.49;51.44
7990;BME280;4040;42.848;23.034;2023-08-12T15:57:39;95218.34;;;25.38;52.33
7990;BME280;4040;42.848;23.034;2023-08-12T16:03:27;95227.41;;;25.18;51.70
7990;BME280;4040;42.848;23.034;2023-08-12T16:09:18;95232.03;;;25.07;54.09
7990;BME280;4040;42.848;23.034;2023-08-12T16:15:07;95236.28;;;24.82;55.66
7990;BME280;4040;42.848;23.034;2023-08-12T16:20:56;95238.00;;;24.60;56.45
7990;BME280;4040;42.848;23.034;2023-08-12T16:26:45;95248.34;;;24.30;59.30
7990;BME280;4040;42.848;23.034;2023-08-12T16:32:34;95251.41;;;24.18;58.91
7990;BME280;4040;42.848;23.034;2023-08-12T16:38:23;95249.13;;;24.02;61.23
7990;BME280;4040;42.848;23.034;2023-08-12T16:48:25;95252.94;;;23.61;65.94
7990;BME280;4040;42.848;23.034;2023-08-12T16:54:14;95265.06;;;23.54;68.54
7990;BME280;4040;42.848;23.034;2023-08-12T17:00:05;95265.66;;;23.44;68.58
7990;BME280;4040;42.848;23.034;2023-08-12T17:05:55;95263.34;;;23.28;74.12
7990;BME280;4040;42.848;23.034;2023-08-12T17:11:44;95272.56;;;23.02;78.98
7990;BME280;4040;42.848;23.034;2023-08-12T17:17:33;95278.16;;;22.69;92.95
7990;BME280;4040;42.848;23.034;2023-08-12T17:23:23;95278.25;;;22.51;88.75
7990;BME280;4040;42.848;23.034;2023-08-12T17:29:12;95273.09;;;22.44;82.03
7990;BME280;4040;42.848;23.034;2023-08-12T17:35:00;95283.81;;;22.33;87.01
7990;BME280;4040;42.848;23.034;2023-08-12T17:40:52;95273.91;;;21.94;94.22
7990;BME280;4040;42.848;23.034;2023-08-12T17:51:02;95275.16;;;21.84;89.27
7990;BME280;4040;42.848;23.034;2023-08-12T17:56:52;95283.31;;;21.61;94.90
7990;BME280;4040;42.848;23.034;2023-08-12T18:02:41;95293.81;;;21.71;92.42
7990;BME280;4040;42.848;23.034;2023-08-12T18:08:30;95249.03;;;21.56;86.51
7990;BME280;4040;42.848;23.034;2023-08-12T18:14:20;95295.00;;;21.61;90.56
7990;BME280;4040;42.848;23.034;2023-08-12T18:20:10;95296.59;;;21.35;100.00
7990;BME280;4040;42.848;23.034;2023-08-12T18:25:59;95305.94;;;20.54;100.00
7990;BME280;4040;42.848;23.034;2023-08-12T18:31:49;95314.00;;;20.09;100.00
7990;BME280;4040;42.848;23.034;2023-08-12T18:37:38;95313.19;;;19.69;100.00
7990;BME280;4040;42.848;23.034;2023-08-12T18:43:27;95317.03;;;19.16;100.00
7990;BME280;4040;42.848;23.034;2023-08-12T18:53:39;95331.22;;;18.43;100.00
7990;BME280;4040;42.848;23.034;2023-08-12T18:59:28;95329.56;;;18.08;100.00
7990;BME280;4040;42.848;23.034;2023-08-12T19:05:17;95337.88;;;17.92;100.00
7990;BME280;4040;42.848;23.034;2023-08-12T19:11:07;95337.88;;;17.92;100.00
7990;BME280;4040;42.848;23.034;2023-08-12T19:16:55;95332.63;;;17.85;100.00
7990;BME280;4040;42.848;23.034;2023-08-12T19:22:44;95336.63;;;17.56;100.00
7990;BME280;4040;42.848;23.034;2023-08-12T19:28:35;95310.47;;;17.30;100.00
7990;BME280;4040;42.848;23.034;2023-08-12T19:34:23;95338.66;;;17.39;100.00
7990;BME280;4040;42.848;23.034;2023-08-12T19:40:14;95334.09;;;17.20;100.00
7990;BME280;4040;42.848;23.034;2023-08-12T19:46:04;95341.00;;;17.09;100.00
7990;BME280;4040;42.848;23.034;2023-08-12T19:56:15;95332.19;;;16.89;100.00
7990;BME280;4040;42.848;23.034;2023-08-12T20:02:06;95351.38;;;16.69;100.00
7990;BME280;4040;42.848;23.034;2023-08-12T20:07:54;95350.38;;;16.47;100.00
7990;BME280;4040;42.848;23.034;2023-08-12T20:13:43;95358.19;;;16.45;100.00
7990;BME280;4040;42.848;23.034;2023-08-12T20:19:34;95362.59;;;16.39;100.00
7990;BME280;4040;42.848;23.034;2023-08-12T20:25:23;95368.53;;;16.34;100.00
7990;BME280;4040;42.848;23.034;2023-08-12T20:31:12;95369.34;;;16.31;100.00
7990;BME280;4040;42.848;23.034;2023-08-12T20:37:01;95363.25;;;16.27;100.00
7990;BME280;4040;42.848;23.034;2023-08-12T20:42:50;95363.41;;;16.20;100.00
7990;BME280;4040;42.848;23.034;2023-08-12T20:48:39;95366.78;;;16.08;100.00
7990;BME280;4040;42.848;23.034;2023-08-12T20:58:50;95369.50;;;15.92;100.00
7990;BME280;4040;42.848;23.034;2023-08-12T21:04:38;95372.00;;;15.83;100.00
7990;BME280;4040;42.848;23.034;2023-08-12T21:10:27;95372.28;;;15.89;100.00
7990;BME280;4040;42.848;23.034;2023-08-12T21:16:18;95371.34;;;15.95;100.00
7990;BME280;4040;42.848;23.034;2023-08-12T21:22:06;95378.09;;;16.07;100.00
7990;BME280;4040;42.848;23.034;2023-08-12T21:27:55;95374.25;;;16.04;100.00
7990;BME280;4040;42.848;23.034;2023-08-12T21:33:45;95374.06;;;15.95;100.00
7990;BME280;4040;42.848;23.034;2023-08-12T21:39:34;95387.13;;;15.84;100.00
7990;BME280;4040;42.848;23.034;2023-08-12T21:45:22;95376.41;;;15.77;100.00
7990;BME280;4040;42.848;23.034;2023-08-12T21:51:14;95384.72;;;15.70;100.00
7990;BME280;4040;42.848;23.034;2023-08-12T22:08:33;95379.63;;;15.53;100.00
7990;BME280;4040;42.848;23.034;2023-08-12T22:14:21;95367.31;;;15.48;100.00
7990;BME280;4040;42.848;23.034;2023-08-12T22:20:11;95372.88;;;15.41;100.00
7990;BME280;4040;42.848;23.034;2023-08-12T22:26:02;95372.19;;;15.37;100.00
7990;BME280;4040;42.848;23.034;2023-08-12T22:31:51;95367.69;;;15.27;100.00
7990;BME280;4040;42.848;23.034;2023-08-12T22:37:39;95367.84;;;15.21;100.00
7990;BME280;4040;42.848;23.034;2023-08-12T22:43:30;95367.06;;;15.20;100.00
7990;BME280;4040;42.848;23.034;2023-08-12T22:49:18;95369.66;;;15.08;100.00
7990;BME280;4040;42.848;23.034;2023-08-12T22:55:07;95373.47;;;15.10;100.00
7990;BME280;4040;42.848;23.034;2023-08-12T23:00:58;95371.53;;;15.11;100.00
7990;BME280;4040;42.848;23.034;2023-08-12T23:03:25;95375.88;;;15.05;100.00
7990;BME280;4040;42.848;23.034;2023-08-12T23:09:14;95368.25;;;15.00;100.00
7990;BME280;4040;42.848;23.034;2023-08-12T23:15:02;95370.25;;;14.96;100.00
7990;BME280;4040;42.848;23.034;2023-08-12T23:20:52;95366.06;;;14.91;100.00
7990;BME280;4040;42.848;23.034;2023-08-12T23:26:41;95360.94;;;14.74;100.00
7990;BME280;4040;42.848;23.034;2023-08-12T23:32:30;95372.63;;;14.71;100.00
7990;BME280;4040;42.848;23.034;2023-08-12T23:38:20;95372.63;;;14.71;100.00
7990;BME280;4040;42.848;23.034;2023-08-12T23:44:09;95373.41;;;14.71;100.00
7990;BME280;4040;42.848;23.034;2023-08-12T23:49:58;95369.28;;;14.63;100.00
7990;BME280;4040;42.848;23.034;2023-08-12T23:55:48;95376.78;;;14.56;100.00
